Time;durP1;ratioP1;P1;durP2;ratioP2;P2;SDS_P1;SDS_P2;PMS_P1;PMS_P2;Temp;Humidity;BMP_temperature;BMP_pressure;BME280_temperature;BME280_humidity;BME280_pressure;Samples;Min_cycle;Max_cycle;Signal;HPM_P1;HPM_P2
2022/11/07 00:01:15;;;;;;;11.30;8.60;;;10.10;99.90;;;;;;4954162;28;20038;-77
2022/11/07 00:03:43;;;;;;;12.02;8.70;;;10.00;99.90;;;;;;4947116;28;20089;-77
2022/11/07 00:06:09;;;;;;;12.52;8.57;;;10.00;99.90;;;;;;4959251;28;20035;-77
2022/11/07 00:08:37;;;;;;;9.48;8.45;;;10.10;99.90;;;;;;4954989;28;20038;-78
2022/11/07 00:11:04;;;;;;;12.05;8.25;;;10.10;99.90;;;;;;4959216;28;20046;-77
2022/11/07 00:13:33;;;;;;;8.70;7.90;;;10.10;99.90;;;;;;4952718;28;20398;-77
2022/11/07 00:16:07;;;;;;;9.43;7.85;;;10.10;99.90;;;;;;4967120;28;20118;-78
2022/11/07 00:18:33;;;;;;;9.23;7.53;;;10.10;99.90;;;;;;4952955;28;20043;-78
2022/11/07 00:21:07;;;;;;;8.77;7.75;;;10.10;99.90;;;;;;4960830;28;20079;-77
2022/11/07 00:23:33;;;;;;;9.88;7.68;;;10.10;99.90;;;;;;4960049;28;20485;-77
2022/11/07 00:26:03;;;;;;;11.07;7.60;;;10.20;99.90;;;;;;4958994;28;20041;-77
2022/11/07 00:28:33;;;;;;;13.68;7.78;;;10.20;99.90;;;;;;4955327;28;20042;-77
2022/11/07 00:30:59;;;;;;;9.98;7.30;;;10.20;99.90;;;;;;4970994;28;20055;-78
2022/11/07 00:33:27;;;;;;;10.65;6.90;;;10.10;99.90;;;;;;4955859;28;20121;-78
2022/11/07 00:35:53;;;;;;;8.95;7.20;;;10.20;99.90;;;;;;4954052;28;20039;-78
2022/11/07 00:38:19;;;;;;;9.70;6.80;;;10.20;99.90;;;;;;4956959;28;20405;-77
2022/11/07 00:41:03;;;;;;;14.77;7.43;;;10.10;99.90;;;;;;4958121;28;20035;-77
2022/11/07 00:43:34;;;;;;;12.25;6.93;;;10.10;99.90;;;;;;4953602;28;20039;-77
2022/11/07 00:46:04;;;;;;;9.98;7.13;;;10.10;99.90;;;;;;4952958;28;20039;-78
2022/11/07 00:48:33;;;;;;;11.35;7.35;;;10.00;99.90;;;;;;4954512;28;20035;-77
2022/11/07 00:51:18;;;;;;;9.68;6.35;;;10.00;99.90;;;;;;4949802;28;20058;-77
2022/11/07 00:53:47;;;;;;;12.13;7.20;;;10.00;99.90;;;;;;4951524;28;20070;-77
2022/11/07 00:56:15;;;;;;;8.27;7.07;;;10.00;99.90;;;;;;4951305;28;20049;-78
2022/11/07 00:58:43;;;;;;;13.00;7.25;;;10.00;99.90;;;;;;4952859;28;20410;-78
2022/11/07 01:01:19;;;;;;;12.40;7.15;;;10.00;99.90;;;;;;4947968;28;20523;-78
2022/11/07 01:06:32;;;;;;;17.88;7.60;;;10.10;99.90;;;;;;4965417;28;20039;-77
2022/11/07 01:08:58;;;;;;;11.73;7.47;;;10.10;99.90;;;;;;4953600;28;20038;-78
2022/11/07 01:11:29;;;;;;;10.45;7.28;;;10.10;99.90;;;;;;4952690;28;20053;-78
2022/11/07 01:13:59;;;;;;;9.23;7.40;;;10.10;99.90;;;;;;4950937;29;20039;-78
2022/11/07 01:16:29;;;;;;;11.13;7.10;;;10.20;99.90;;;;;;4950503;28;20056;-77
2022/11/07 01:18:55;;;;;;;9.70;7.55;;;10.20;99.90;;;;;;4953642;28;20515;-78
2022/11/07 01:21:22;;;;;;;10.27;6.75;;;10.20;99.90;;;;;;4951625;28;20584;-78
2022/11/07 01:23:48;;;;;;;9.10;6.65;;;10.30;99.90;;;;;;4951186;28;20035;-78
2022/11/07 01:26:14;;;;;;;9.85;7.13;;;10.30;99.90;;;;;;4949251;28;20547;-77
2022/11/07 01:28:41;;;;;;;8.77;6.38;;;10.40;99.90;;;;;;4954341;28;20030;-78
2022/11/07 01:31:11;;;;;;;9.98;6.45;;;10.40;99.90;;;;;;4955029;28;20062;-78
2022/11/07 01:33:41;;;;;;;9.20;6.35;;;10.50;99.90;;;;;;4952110;28;20081;-78
2022/11/07 01:36:10;;;;;;;10.25;6.50;;;10.40;99.90;;;;;;4950780;28;20039;-78
2022/11/07 01:38:39;;;;;;;8.70;6.32;;;10.40;99.90;;;;;;4949932;28;20043;-78
2022/11/07 01:41:21;;;;;;;9.65;5.70;;;10.40;99.90;;;;;;4957701;28;20042;-78
2022/11/07 01:44:03;;;;;;;10.10;6.05;;;10.50;99.90;;;;;;4950462;28;20062;-78
2022/11/07 01:46:37;;;;;;;11.63;5.87;;;10.50;99.90;;;;;;4944895;28;20045;-78
2022/11/07 01:49:09;;;;;;;7.68;5.90;;;10.50;99.90;;;;;;4965188;28;20684;-78
2022/11/07 01:51:42;;;;;;;7.20;5.60;;;10.50;99.90;;;;;;4950291;28;20089;-77
2022/11/07 01:54:09;;;;;;;8.63;5.35;;;10.60;99.90;;;;;;4967136;28;20042;-78
2022/11/07 01:56:38;;;;;;;11.27;5.80;;;10.60;99.90;;;;;;4951971;28;20042;-77
2022/11/07 01:59:07;;;;;;;9.48;5.38;;;10.50;99.90;;;;;;4949822;28;20061;-78
2022/11/07 02:01:33;;;;;;;9.43;5.43;;;10.60;99.90;;;;;;4955756;28;20043;-78
2022/11/07 02:04:00;;;;;;;11.20;5.10;;;10.50;99.90;;;;;;4947565;28;20433;-77
2022/11/07 02:06:35;;;;;;;10.77;4.97;;;10.50;99.90;;;;;;4968418;28;20097;-77
2022/11/07 02:09:01;;;;;;;9.95;5.15;;;10.50;99.90;;;;;;4950591;28;20518;-77
2022/11/07 02:11:28;;;;;;;11.05;5.13;;;10.60;99.90;;;;;;4950346;28;20034;-77
2022/11/07 02:13:54;;;;;;;16.25;6.25;;;10.60;99.90;;;;;;4951181;28;20165;-77
2022/11/07 02:16:20;;;;;;;11.95;5.72;;;10.60;99.90;;;;;;4957094;28;20117;-78
2022/11/07 02:18:47;;;;;;;8.07;5.47;;;10.60;99.90;;;;;;4950150;28;20070;-78
2022/11/07 02:21:21;;;;;;;10.35;5.80;;;10.60;99.90;;;;;;4954688;28;20078;-78
2022/11/07 02:24:00;;;;;;;11.35;6.35;;;10.60;99.90;;;;;;4952934;28;20039;-78
2022/11/07 02:26:26;;;;;;;12.32;6.00;;;10.70;99.90;;;;;;4967256;28;20045;-78
2022/11/07 02:28:55;;;;;;;13.70;6.22;;;10.70;99.90;;;;;;4961419;28;20034;-78
2022/11/07 02:31:21;;;;;;;12.00;5.75;;;10.70;99.90;;;;;;4960788;28;20706;-78
2022/11/07 02:33:47;;;;;;;10.48;6.05;;;10.70;99.90;;;;;;4947688;28;20047;-78
2022/11/07 02:36:18;;;;;;;10.82;5.90;;;10.70;99.90;;;;;;4954886;28;20051;-78
2022/11/07 02:38:50;;;;;;;11.45;6.10;;;10.70;99.90;;;;;;4966762;28;20043;-78
2022/11/07 02:41:20;;;;;;;8.93;5.70;;;10.70;99.90;;;;;;4960324;28;20034;-78
2022/11/07 02:43:53;;;;;;;10.55;6.13;;;10.60;99.90;;;;;;4955364;28;20070;-79
2022/11/07 02:46:20;;;;;;;12.05;6.15;;;10.70;99.90;;;;;;4953245;28;20105;-78
2022/11/07 02:48:50;;;;;;;10.25;6.60;;;10.60;99.90;;;;;;4955439;28;20093;-78
2022/11/07 02:51:16;;;;;;;10.32;6.70;;;10.60;99.90;;;;;;4999860;23;20039;-75
2022/11/07 02:53:42;;;;;;;13.23;6.30;;;10.60;99.90;;;;;;4951128;28;20468;-75
2022/11/07 02:56:08;;;;;;;11.18;6.22;;;10.60;99.90;;;;;;4919542;29;20035;-74
2022/11/07 02:58:34;;;;;;;13.63;7.05;;;10.50;99.90;;;;;;4935521;29;20078;-75
2022/11/07 03:01:05;;;;;;;11.25;6.35;;;10.50;99.90;;;;;;4935909;28;20051;-75
2022/11/07 03:03:35;;;;;;;12.23;6.32;;;10.50;99.90;;;;;;4917578;28;20043;-75
2022/11/07 03:06:01;;;;;;;10.90;6.70;;;10.50;99.90;;;;;;4919627;29;20580;-74
2022/11/07 03:08:27;;;;;;;11.25;6.00;;;10.50;99.90;;;;;;4917933;29;20035;-74
2022/11/07 03:10:53;;;;;;;13.60;5.45;;;10.50;99.90;;;;;;4932403;29;20425;-75
2022/11/07 03:13:18;;;;;;;10.30;6.03;;;10.50;99.90;;;;;;4934636;29;20062;-74
2022/11/07 03:15:44;;;;;;;9.50;5.60;;;10.50;99.90;;;;;;4934122;29;20130;-75
2022/11/07 03:18:09;;;;;;;15.57;6.15;;;10.50;99.90;;;;;;4931674;28;20054;-74
2022/11/07 03:20:35;;;;;;;12.50;6.10;;;10.40;99.90;;;;;;4933172;29;20070;-75
2022/11/07 03:23:00;;;;;;;14.32;6.30;;;10.40;99.90;;;;;;4933452;29;20039;-75
2022/11/07 03:25:26;;;;;;;9.50;5.40;;;10.40;99.90;;;;;;4933726;29;20035;-75
2022/11/07 03:27:52;;;;;;;10.27;6.07;;;10.40;99.90;;;;;;4932757;29;20050;-75
2022/11/07 03:30:17;;;;;;;10.50;5.70;;;10.50;99.90;;;;;;4947653;28;20403;-74
2022/11/07 03:32:43;;;;;;;15.63;6.55;;;10.50;99.90;;;;;;4932012;29;20031;-75
2022/11/07 03:35:09;;;;;;;14.23;6.00;;;10.40;99.90;;;;;;4933408;29;20031;-74
2022/11/07 03:37:35;;;;;;;11.88;6.03;;;10.40;99.90;;;;;;4936752;29;20043;-75
2022/11/07 03:40:00;;;;;;;9.25;5.78;;;10.40;99.90;;;;;;4934206;29;20046;-74
2022/11/07 03:42:26;;;;;;;11.77;5.53;;;10.40;99.90;;;;;;4936688;29;20046;-75
2022/11/07 03:44:52;;;;;;;10.18;5.93;;;10.40;99.90;;;;;;4935653;29;20070;-75
2022/11/07 03:47:17;;;;;;;11.63;6.38;;;10.50;99.90;;;;;;4934048;28;20039;-75
2022/11/07 03:49:43;;;;;;;17.15;6.93;;;10.50;99.90;;;;;;4932588;29;20496;-75
2022/11/07 03:52:08;;;;;;;12.95;5.80;;;10.50;99.90;;;;;;4945840;28;20039;-74
2022/11/07 03:54:34;;;;;;;15.30;6.28;;;10.50;99.90;;;;;;4950593;28;20067;-75
2022/11/07 03:56:59;;;;;;;10.68;5.78;;;10.50;99.90;;;;;;4948183;28;20073;-74
2022/11/07 03:59:25;;;;;;;11.50;5.55;;;10.50;99.90;;;;;;4948292;28;20043;-75
2022/11/07 04:01:50;;;;;;;12.25;5.70;;;10.50;99.90;;;;;;4947542;28;20058;-75
2022/11/07 04:04:16;;;;;;;11.43;5.93;;;10.40;99.90;;;;;;4933441;29;20046;-75
2022/11/07 04:06:42;;;;;;;11.93;5.93;;;10.40;99.90;;;;;;4962044;28;20039;-75
2022/11/07 04:09:07;;;;;;;8.95;5.43;;;10.40;99.90;;;;;;4948137;29;20057;-74
2022/11/07 04:17:19;;;;;;;11.52;5.90;;;10.30;99.90;;;;;;4961823;28;20055;-75
2022/11/07 04:19:51;;;;;;;11.93;5.57;;;10.20;99.90;;;;;;4964048;28;20046;-74
2022/11/07 04:22:17;;;;;;;11.73;6.20;;;10.20;99.90;;;;;;4960991;28;20043;-75
2022/11/07 04:24:43;;;;;;;12.00;6.30;;;10.20;99.90;;;;;;4947679;29;20051;-75
2022/11/07 04:29:54;;;;;;;12.68;6.32;;;10.10;99.90;;;;;;4961227;28;20176;-74
2022/11/07 04:32:21;;;;;;;9.73;5.88;;;10.10;99.90;;;;;;4947168;28;20103;-74
2022/11/07 04:34:46;;;;;;;15.30;6.75;;;10.00;99.90;;;;;;4947531;29;20405;-74
2022/11/07 04:37:12;;;;;;;9.63;6.60;;;10.00;99.90;;;;;;4945239;28;20137;-74
2022/11/07 04:39:38;;;;;;;9.15;6.25;;;10.00;99.90;;;;;;4947139;28;20047;-74
2022/11/07 04:42:03;;;;;;;10.30;6.75;;;10.00;99.90;;;;;;4944211;28;20035;-74
2022/11/07 04:44:29;;;;;;;13.95;6.78;;;10.00;99.90;;;;;;4962174;28;20035;-75
2022/11/07 04:46:54;;;;;;;11.38;6.18;;;10.00;99.90;;;;;;4946455;28;20043;-75
2022/11/07 04:49:20;;;;;;;12.27;6.90;;;10.00;99.90;;;;;;4949239;28;20039;-74
2022/11/07 04:51:45;;;;;;;10.55;6.93;;;10.00;99.90;;;;;;4948757;28;20045;-75
2022/11/07 04:54:13;;;;;;;13.68;6.82;;;10.00;99.90;;;;;;4949983;28;20050;-74
2022/11/07 04:56:39;;;;;;;10.32;7.03;;;10.00;99.90;;;;;;4962546;28;20039;-74
2022/11/07 04:59:04;;;;;;;14.65;7.30;;;10.00;99.90;;;;;;4937230;28;20035;-74
2022/11/07 05:01:30;;;;;;;12.05;6.85;;;10.00;99.90;;;;;;4967691;28;20035;-74
2022/11/07 05:03:56;;;;;;;10.48;6.65;;;9.90;99.90;;;;;;4962574;28;20035;-75
2022/11/07 05:06:22;;;;;;;15.00;7.70;;;10.00;99.90;;;;;;4948448;28;20039;-74
2022/11/07 05:08:47;;;;;;;8.50;6.93;;;10.00;99.90;;;;;;4947676;29;20031;-74
2022/11/07 05:11:13;;;;;;;11.85;7.38;;;10.00;99.90;;;;;;4935999;28;20070;-75
2022/11/07 05:13:39;;;;;;;9.93;6.85;;;10.00;99.90;;;;;;4968386;28;20061;-74
2022/11/07 05:16:05;;;;;;;11.90;6.15;;;10.00;99.90;;;;;;4946094;29;20075;-74
2022/11/07 05:18:31;;;;;;;14.95;6.70;;;10.00;99.90;;;;;;4961773;28;20047;-75
2022/11/07 05:20:56;;;;;;;10.95;6.40;;;10.00;99.90;;;;;;4963290;28;20541;-74
2022/11/07 05:23:22;;;;;;;13.23;6.10;;;10.00;99.90;;;;;;4961435;28;20039;-74
2022/11/07 05:25:50;;;;;;;9.60;5.80;;;10.00;99.90;;;;;;4939088;28;20066;-74
2022/11/07 05:28:21;;;;;;;11.05;6.13;;;10.00;99.90;;;;;;4946291;28;20035;-75
2022/11/07 05:30:47;;;;;;;12.50;6.00;;;10.00;99.90;;;;;;4946824;28;20039;-75
2022/11/07 05:33:15;;;;;;;13.00;6.00;;;10.00;99.90;;;;;;4946409;28;20106;-75
2022/11/07 05:35:41;;;;;;;9.35;5.55;;;10.10;99.90;;;;;;4945181;29;20043;-75
2022/11/07 05:38:07;;;;;;;13.70;6.38;;;10.20;99.90;;;;;;4945685;28;20039;-75
2022/11/07 05:40:37;;;;;;;16.38;6.78;;;10.20;99.90;;;;;;4945257;28;20058;-75
2022/11/07 05:43:06;;;;;;;10.27;5.80;;;10.20;99.90;;;;;;4961473;28;20050;-75
2022/11/07 05:45:33;;;;;;;10.18;6.10;;;10.30;99.90;;;;;;4927033;29;20035;-75
2022/11/07 05:48:01;;;;;;;13.15;6.80;;;10.30;99.90;;;;;;4949914;28;20035;-75
2022/11/07 05:50:27;;;;;;;12.25;6.53;;;10.40;99.90;;;;;;4962654;28;20493;-75
2022/11/07 05:52:53;;;;;;;13.45;7.28;;;10.40;99.90;;;;;;4971337;28;20039;-75
2022/11/07 05:55:19;;;;;;;13.30;7.22;;;10.40;99.90;;;;;;4987750;28;20065;-75
2022/11/07 05:57:45;;;;;;;14.95;7.55;;;10.40;99.90;;;;;;4971313;28;20130;-75
2022/11/07 06:00:11;;;;;;;13.88;8.43;;;10.40;99.90;;;;;;4961797;28;20084;-76
2022/11/07 06:02:36;;;;;;;14.98;9.35;;;10.40;99.90;;;;;;4939641;29;20046;-76
2022/11/07 06:05:02;;;;;;;19.88;9.18;;;10.40;99.90;;;;;;4966398;28;20039;-74
2022/11/07 06:07:28;;;;;;;16.85;8.73;;;10.40;99.90;;;;;;4947518;28;20058;-74
2022/11/07 06:09:53;;;;;;;16.75;9.18;;;10.40;99.90;;;;;;4966135;28;20628;-75
2022/11/07 06:12:19;;;;;;;17.67;9.73;;;10.30;99.90;;;;;;4976224;28;20043;-75
2022/11/07 06:14:45;;;;;;;16.67;9.50;;;10.30;99.90;;;;;;4970712;28;20039;-75
2022/11/07 06:17:10;;;;;;;16.00;9.13;;;10.30;99.90;;;;;;4971809;28;20047;-74
2022/11/07 06:19:36;;;;;;;17.38;9.32;;;10.30;99.90;;;;;;4952013;28;20061;-74
2022/11/07 06:22:01;;;;;;;15.68;8.98;;;10.30;99.90;;;;;;4969229;28;20059;-74
2022/11/07 06:24:27;;;;;;;18.80;10.00;;;10.30;99.90;;;;;;4970146;28;20501;-74
2022/11/07 06:26:53;;;;;;;16.00;9.20;;;10.30;99.90;;;;;;4971693;28;20067;-74
2022/11/07 06:29:18;;;;;;;18.25;8.90;;;10.30;99.90;;;;;;4970469;28;20035;-74
2022/11/07 06:31:44;;;;;;;15.88;9.30;;;10.30;99.90;;;;;;4947436;28;20412;-74
2022/11/07 06:34:10;;;;;;;30.27;9.93;;;10.30;99.90;;;;;;4952390;28;20126;-74
2022/11/07 06:36:35;;;;;;;17.02;8.60;;;10.30;99.90;;;;;;4936599;28;20063;-73
2022/11/07 06:39:01;;;;;;;23.10;9.10;;;10.30;99.90;;;;;;4948526;28;20039;-74
2022/11/07 06:41:26;;;;;;;21.17;8.73;;;10.30;99.90;;;;;;4950766;28;20063;-74
2022/11/07 06:43:52;;;;;;;15.07;8.10;;;10.30;99.90;;;;;;4936016;29;20449;-74
2022/11/07 06:46:21;;;;;;;13.57;7.70;;;10.40;99.90;;;;;;4971688;28;20039;-74
2022/11/07 06:48:47;;;;;;;14.93;8.65;;;10.40;99.90;;;;;;4979143;28;20034;-74
2022/11/07 06:51:13;;;;;;;19.42;7.82;;;10.40;99.90;;;;;;4987724;28;20544;-74
2022/11/07 06:53:38;;;;;;;17.83;8.65;;;10.40;99.90;;;;;;4962384;28;20051;-74
2022/11/07 06:56:06;;;;;;;14.40;8.30;;;10.50;99.90;;;;;;4944260;28;20058;-73
2022/11/07 06:58:32;;;;;;;19.30;8.73;;;10.50;99.90;;;;;;4932329;29;20086;-74
2022/11/07 07:01:02;;;;;;;14.45;7.70;;;10.50;99.90;;;;;;4927244;29;20465;-74
2022/11/07 07:03:28;;;;;;;14.32;7.47;;;10.50;99.90;;;;;;4958813;28;20043;-74
2022/11/07 07:05:53;;;;;;;12.18;7.90;;;10.50;99.90;;;;;;4947296;29;20485;-74
2022/11/07 07:08:19;;;;;;;11.32;7.72;;;10.40;99.90;;;;;;4954118;29;20446;-74
2022/11/07 07:10:45;;;;;;;15.10;7.75;;;10.50;99.90;;;;;;4944694;29;20050;-74
2022/11/07 07:13:11;;;;;;;16.92;7.65;;;10.50;99.90;;;;;;4955147;28;20043;-74
2022/11/07 07:15:37;;;;;;;15.20;7.45;;;10.50;99.90;;;;;;4954007;29;20118;-74
2022/11/07 07:18:03;;;;;;;13.52;7.50;;;10.50;99.90;;;;;;4928509;29;20131;-74
2022/11/07 07:20:30;;;;;;;12.80;7.32;;;10.50;99.90;;;;;;4930833;29;20043;-74
2022/11/07 07:22:56;;;;;;;15.85;7.28;;;10.50;99.90;;;;;;4954606;28;20043;-73
2022/11/07 07:25:22;;;;;;;13.52;6.80;;;10.50;99.90;;;;;;4945117;28;20118;-74
2022/11/07 07:27:48;;;;;;;17.20;7.38;;;10.60;99.90;;;;;;4917251;29;20039;-74
2022/11/07 07:30:13;;;;;;;12.55;6.85;;;10.70;99.90;;;;;;4954611;29;20062;-74
2022/11/07 07:32:39;;;;;;;17.30;7.53;;;10.70;99.90;;;;;;4938568;29;20406;-74
2022/11/07 07:35:05;;;;;;;14.68;7.15;;;10.80;99.90;;;;;;4938337;29;20039;-74
2022/11/07 07:37:31;;;;;;;14.40;7.05;;;10.80;99.90;;;;;;4954376;29;20047;-74
2022/11/07 07:39:57;;;;;;;12.63;6.03;;;10.90;99.90;;;;;;4954730;29;20490;-74
2022/11/07 07:42:22;;;;;;;12.00;5.90;;;10.90;99.90;;;;;;4922482;29;20039;-74
2022/11/07 07:44:48;;;;;;;12.55;5.88;;;10.90;99.90;;;;;;4954591;29;20071;-74
2022/11/07 07:47:14;;;;;;;17.98;5.93;;;10.90;99.90;;;;;;4954277;29;20050;-74
2022/11/07 07:49:39;;;;;;;13.30;6.05;;;11.00;99.90;;;;;;4947042;29;20602;-75
2022/11/07 07:52:05;;;;;;;12.65;6.97;;;11.00;99.90;;;;;;4957962;28;20403;-74
2022/11/07 07:54:30;;;;;;;12.73;6.13;;;11.10;99.90;;;;;;4970093;28;20059;-74
2022/11/07 07:56:56;;;;;;;13.35;6.03;;;11.10;99.90;;;;;;4969434;28;20074;-74
2022/11/07 07:59:21;;;;;;;13.68;6.05;;;11.10;99.90;;;;;;4960510;28;20098;-74
2022/11/07 08:01:47;;;;;;;14.50;6.32;;;11.10;99.90;;;;;;4969980;28;20035;-74
2022/11/07 08:04:13;;;;;;;12.82;6.10;;;11.20;99.90;;;;;;4954196;29;20127;-74
2022/11/07 08:06:38;;;;;;;13.65;6.07;;;11.20;99.90;;;;;;4937875;29;20078;-74
2022/11/07 08:09:04;;;;;;;11.18;5.32;;;11.20;99.90;;;;;;4953294;29;20038;-74
2022/11/07 08:11:30;;;;;;;10.13;4.88;;;11.20;99.90;;;;;;4945383;28;20490;-74
2022/11/07 08:13:56;;;;;;;11.10;5.72;;;11.30;99.90;;;;;;4953592;29;20042;-74
2022/11/07 08:16:22;;;;;;;12.02;5.32;;;11.30;99.90;;;;;;4938097;29;20051;-75
2022/11/07 08:18:47;;;;;;;11.88;5.90;;;11.40;99.90;;;;;;4937571;29;20055;-74
2022/11/07 08:21:13;;;;;;;10.63;5.10;;;11.40;99.90;;;;;;4969778;28;20028;-74
2022/11/07 08:23:38;;;;;;;11.68;5.25;;;11.40;99.90;;;;;;4969221;28;20234;-74
2022/11/07 08:26:05;;;;;;;10.10;4.63;;;11.40;99.90;;;;;;4930071;29;20065;-74
2022/11/07 08:28:34;;;;;;;11.35;4.75;;;11.40;99.90;;;;;;4969434;28;20402;-74
2022/11/07 08:31:06;;;;;;;13.35;5.25;;;11.50;99.90;;;;;;4937577;29;20129;-74
2022/11/07 08:33:33;;;;;;;9.33;4.73;;;11.40;99.90;;;;;;4965213;28;20050;-74
2022/11/07 08:36:00;;;;;;;9.43;5.28;;;11.50;99.90;;;;;;4965176;28;20298;-74
2022/11/07 08:38:27;;;;;;;14.65;4.90;;;11.50;99.90;;;;;;4969377;28;20047;-74
2022/11/07 08:40:52;;;;;;;14.75;4.85;;;11.50;99.90;;;;;;4937599;29;20039;-74
2022/11/07 08:43:18;;;;;;;9.95;4.43;;;11.50;99.90;;;;;;4953134;29;20044;-74
2022/11/07 08:45:46;;;;;;;9.32;3.72;;;11.60;99.90;;;;;;4953128;29;20509;-74
2022/11/07 08:48:12;;;;;;;8.48;4.00;;;11.60;99.90;;;;;;4960464;28;20128;-74
2022/11/07 08:50:37;;;;;;;12.75;4.38;;;11.60;99.90;;;;;;4969128;28;20491;-74
2022/11/07 08:53:04;;;;;;;10.13;4.20;;;11.60;99.90;;;;;;4980982;23;20105;-76
2022/11/07 08:55:32;;;;;;;9.98;4.00;;;11.70;99.90;;;;;;4956708;28;20039;-77
2022/11/07 08:58:07;;;;;;;10.07;4.30;;;11.70;99.90;;;;;;4955652;28;20074;-76
2022/11/07 09:00:34;;;;;;;12.00;4.30;;;11.80;99.90;;;;;;4961186;28;20104;-76
2022/11/07 09:03:10;;;;;;;8.10;3.72;;;11.80;99.90;;;;;;4971969;28;20109;-77
2022/11/07 09:05:37;;;;;;;10.98;3.90;;;11.90;99.90;;;;;;4936975;29;20071;-77
2022/11/07 09:08:04;;;;;;;10.00;3.75;;;11.90;99.90;;;;;;4937038;28;20047;-76
2022/11/07 09:10:33;;;;;;;10.63;4.68;;;12.00;99.90;;;;;;4963452;28;20041;-77
2022/11/07 09:12:59;;;;;;;11.35;3.97;;;12.10;99.90;;;;;;4972456;28;20124;-77
2022/11/07 09:15:26;;;;;;;9.68;3.60;;;12.20;99.90;;;;;;4972434;28;20041;-77
2022/11/07 09:17:52;;;;;;;6.45;3.15;;;12.20;99.90;;;;;;4958629;28;20508;-77
2022/11/07 09:20:18;;;;;;;10.88;3.88;;;12.30;99.90;;;;;;4957279;28;20039;-77
2022/11/07 09:22:44;;;;;;;7.80;3.47;;;12.30;99.90;;;;;;4953889;28;20049;-77
2022/11/07 09:25:13;;;;;;;9.70;4.25;;;12.30;99.90;;;;;;4963974;28;20121;-77
2022/11/07 09:27:41;;;;;;;10.30;4.05;;;12.40;99.90;;;;;;4972033;28;20050;-77
2022/11/07 09:30:08;;;;;;;10.23;3.67;;;12.40;99.90;;;;;;4971820;28;20520;-77
2022/11/07 09:32:37;;;;;;;9.15;3.40;;;12.40;99.90;;;;;;4969296;28;20038;-77
2022/11/07 09:35:09;;;;;;;10.35;3.90;;;12.40;99.90;;;;;;4956360;28;20042;-77
2022/11/07 09:37:39;;;;;;;9.55;3.88;;;12.40;99.90;;;;;;4971247;28;20053;-76
2022/11/07 09:40:18;;;;;;;12.60;4.88;;;12.40;99.90;;;;;;4972130;28;20039;-77
2022/11/07 09:43:11;;;;;;;9.43;4.85;;;12.40;99.90;;;;;;4970272;28;20046;-77
2022/11/07 09:45:48;;;;;;;15.48;5.28;;;12.40;99.90;;;;;;4936416;29;20042;-77
2022/11/07 09:48:22;;;;;;;10.82;3.97;;;12.40;99.90;;;;;;4935979;29;20127;-77
2022/11/07 09:50:50;;;;;;;10.30;4.43;;;12.50;99.90;;;;;;4936417;29;20046;-77
2022/11/07 09:53:35;;;;;;;10.70;5.45;;;12.40;99.90;;;;;;4936069;29;20051;-77
2022/11/07 09:56:09;;;;;;;12.02;4.82;;;12.50;99.90;;;;;;4946033;28;20034;-77
2022/11/07 09:58:56;;;;;;;12.32;4.90;;;12.60;99.90;;;;;;4936404;29;20043;-77
2022/11/07 10:01:34;;;;;;;10.45;4.57;;;12.70;99.90;;;;;;4921113;29;20726;-77
2022/11/07 10:04:00;;;;;;;10.60;4.13;;;12.80;99.90;;;;;;4943793;28;20038;-77
2022/11/07 10:06:31;;;;;;;7.75;3.70;;;12.90;99.90;;;;;;4961778;28;20600;-76
2022/11/07 10:09:16;;;;;;;10.30;5.30;;;12.90;99.90;;;;;;4959840;28;20401;-77
2022/11/07 10:12:17;;;;;;;9.23;3.60;;;12.90;99.90;;;;;;4955543;28;20050;-77
2022/11/07 10:15:09;;;;;;;9.50;4.38;;;13.00;99.90;;;;;;4955348;28;20047;-77
2022/11/07 10:18:01;;;;;;;;;;;13.10;99.90;;;;;;4970855;28;20493;-77
2022/11/07 10:20:42;;;;;;;8.85;3.78;;;13.20;99.90;;;;;;4933034;29;19919;-77
2022/11/07 10:23:36;;;;;;;7.22;3.88;;;13.30;99.90;;;;;;4936233;29;20524;-77
2022/11/07 10:26:14;;;;;;;10.65;3.50;;;13.40;99.90;;;;;;4937704;28;20055;-77
2022/11/07 10:29:10;;;;;;;8.80;3.72;;;13.40;99.90;;;;;;4936165;29;20051;-77
2022/11/07 10:32:06;;;;;;;9.43;3.85;;;13.40;99.90;;;;;;4936508;28;20050;-77
2022/11/07 10:34:43;;;;;;;7.72;3.50;;;13.50;99.90;;;;;;4955266;28;20042;-77
2022/11/07 10:37:15;;;;;;;7.47;3.60;;;13.60;99.90;;;;;;4971228;28;20046;-76
2022/11/07 10:39:41;;;;;;;7.82;3.85;;;13.70;99.90;;;;;;4964587;28;20049;-77
2022/11/07 10:42:09;;;;;;;8.32;3.80;;;13.80;99.90;;;;;;4974474;28;20447;-78
2022/11/07 10:44:39;;;;;;;9.27;3.70;;;13.90;99.90;;;;;;4955152;28;20038;-76
2022/11/07 10:47:15;;;;;;;6.85;3.92;;;13.90;99.90;;;;;;4971239;28;20149;-77
2022/11/07 10:50:18;;;;;;;10.02;3.55;;;14.00;99.90;;;;;;4955058;28;20038;-78
2022/11/07 10:52:52;;;;;;;8.90;3.13;;;14.00;99.90;;;;;;4946838;28;20035;-77
2022/11/07 10:55:19;;;;;;;6.82;3.10;;;14.10;99.90;;;;;;4955048;28;20047;-77
2022/11/07 10:57:50;;;;;;;7.25;2.90;;;14.10;99.90;;;;;;4954858;28;20045;-77
2022/11/07 11:00:23;;;;;;;12.20;3.15;;;14.00;99.90;;;;;;4956701;28;20189;-77
2022/11/07 11:03:02;;;;;;;8.15;2.97;;;14.00;99.90;;;;;;4959528;28;20405;-77
2022/11/07 11:05:46;;;;;;;9.55;3.17;;;13.90;99.90;;;;;;4958326;28;20026;-77
2022/11/07 11:08:22;;;;;;;8.45;3.08;;;13.90;99.90;;;;;;4958828;28;20042;-78
2022/11/07 11:10:49;;;;;;;9.07;3.60;;;13.90;99.90;;;;;;4958336;28;20050;-78
2022/11/07 11:13:30;;;;;;;7.22;2.83;;;14.10;99.90;;;;;;4958300;28;20102;-77
2022/11/07 11:16:07;;;;;;;8.13;3.10;;;14.10;99.90;;;;;;4951527;28;20485;-78
2022/11/07 11:18:33;;;;;;;6.80;3.15;;;14.30;99.90;;;;;;4951236;28;20047;-78
2022/11/07 11:21:01;;;;;;;4.25;2.60;;;14.40;99.90;;;;;;4958857;28;20461;-78
2022/11/07 11:23:35;;;;;;;8.63;3.20;;;14.50;99.90;;;;;;4958411;28;20129;-78
2022/11/07 11:26:19;;;;;;;8.75;2.85;;;14.50;99.90;;;;;;4958698;28;20498;-78
2022/11/07 11:28:51;;;;;;;10.63;3.75;;;14.50;99.90;;;;;;4957491;28;20047;-78
2022/11/07 11:31:35;;;;;;;8.27;3.00;;;14.40;99.90;;;;;;4957958;28;20054;-78
2022/11/07 11:34:18;;;;;;;9.27;3.67;;;14.40;99.90;;;;;;4957701;28;20093;-77
2022/11/07 11:37:00;;;;;;;13.03;3.90;;;14.40;99.90;;;;;;4974341;28;20042;-78
2022/11/07 11:39:54;;;;;;;7.22;3.17;;;14.50;99.90;;;;;;4958309;28;20059;-78
2022/11/07 11:42:41;;;;;;;8.65;3.90;;;14.40;99.90;;;;;;4959105;28;20548;-77
2022/11/07 11:45:49;;;;;;;10.52;3.70;;;14.40;99.90;;;;;;4973479;28;20126;-77
2022/11/07 11:48:43;;;;;;;8.18;3.15;;;14.40;99.90;;;;;;4957813;28;20137;-77
2022/11/07 11:51:22;;;;;;;;;;;14.50;99.90;;;;;;4958913;28;20081;-78
2022/11/07 11:53:48;;;;;;;8.10;3.30;;;14.40;99.90;;;;;;4954211;29;19972;-78
2022/11/07 11:56:44;;;;;;;7.10;3.20;;;14.40;99.90;;;;;;4955587;28;20130;-78
2022/11/07 11:59:54;;;;;;;9.20;3.13;;;14.40;99.90;;;;;;4955349;28;20549;-78
2022/11/07 12:02:58;;;;;;;9.35;3.17;;;14.40;99.90;;;;;;4918799;29;20083;-78
2022/11/07 12:05:59;;;;;;;8.07;3.10;;;14.40;99.90;;;;;;4908204;29;20454;-78
2022/11/07 12:08:58;;;;;;;9.07;2.95;;;14.30;99.90;;;;;;4920005;29;20075;-78
2022/11/07 12:11:31;;;;;;;5.18;2.83;;;14.30;99.90;;;;;;4929647;28;20043;-78
2022/11/07 12:14:21;;;;;;;9.02;3.47;;;14.20;99.90;;;;;;4955462;28;20050;-78
2022/11/07 12:16:56;;;;;;;5.28;2.72;;;14.30;99.90;;;;;;4955179;28;20406;-77
2022/11/07 12:19:53;;;;;;;6.90;3.20;;;14.30;99.90;;;;;;4938600;29;20409;-78
2022/11/07 12:22:34;;;;;;;6.57;2.95;;;14.40;99.90;;;;;;4953407;28;20134;-78
2022/11/07 12:25:31;;;;;;;6.82;3.15;;;14.40;99.90;;;;;;4939240;29;20043;-77
2022/11/07 12:28:15;;;;;;;6.40;3.05;;;14.30;99.90;;;;;;4918944;29;20070;-77
2022/11/07 12:30:47;;;;;;;10.30;3.42;;;14.30;99.90;;;;;;4919656;29;20506;-78
2022/11/07 12:33:31;;;;;;;10.15;3.10;;;14.20;99.90;;;;;;4918973;29;20035;-78
2022/11/07 12:36:16;;;;;;;8.52;3.55;;;14.20;99.90;;;;;;4929578;29;20046;-78
2022/11/07 12:38:56;;;;;;;14.45;3.53;;;14.30;99.90;;;;;;4918968;29;20039;-78
2022/11/07 12:41:38;;;;;;;7.38;2.85;;;14.30;99.90;;;;;;4937754;29;20059;-78
2022/11/07 12:44:07;;;;;;;9.77;3.97;;;14.30;99.90;;;;;;4937756;29;20129;-78
2022/11/07 12:46:52;;;;;;;8.43;3.72;;;14.30;99.90;;;;;;4954013;29;20039;-78
2022/11/07 12:49:36;;;;;;;7.38;3.35;;;14.30;99.90;;;;;;4938009;29;20043;-78
2022/11/07 12:52:23;;;;;;;9.77;3.47;;;14.30;99.90;;;;;;4943310;28;20049;-78
2022/11/07 12:54:58;;;;;;;7.10;3.33;;;14.10;99.90;;;;;;4973030;28;20421;-78
2022/11/07 12:57:39;;;;;;;10.50;3.45;;;14.10;99.90;;;;;;4973398;28;20050;-78
2022/11/07 13:00:16;;;;;;;8.73;3.72;;;14.10;99.90;;;;;;4958184;28;20042;-78
2022/11/07 13:03:03;;;;;;;7.38;4.13;;;14.00;99.90;;;;;;4976359;28;20125;-78
2022/11/07 13:05:50;;;;;;;9.45;4.45;;;13.90;99.90;;;;;;4976366;28;20400;-78
2022/11/07 13:08:38;;;;;;;8.88;4.28;;;13.80;99.90;;;;;;4976442;28;20062;-78
2022/11/07 13:11:20;;;;;;;8.43;4.30;;;13.80;99.90;;;;;;4968744;28;20516;-78